Time;durP1;ratioP1;P1;durP2;ratioP2;P2;SDS_P1;SDS_P2;PMS_P1;PMS_P2;Temp;Humidity;BMP_temperature;BMP_pressure;BME280_temperature;BME280_humidity;BME280_pressure;Samples;Min_cycle;Max_cycle;Signal;HPM_P1;HPM_P2
2023/08/22 00:00:20;;;;;;;12.35;7.25;;;;;;;18.00;100.00;101763.34;5080800;28;20089;-83
2023/08/22 00:02:46;;;;;;;15.30;7.25;;;;;;;18.02;100.00;101754.91;5086583;28;20549;-83
2023/08/22 00:05:12;;;;;;;15.18;7.78;;;;;;;17.96;100.00;101751.69;5053151;28;20119;-83
2023/08/22 00:07:38;;;;;;;16.13;7.07;;;;;;;18.13;100.00;101751.97;5082517;28;20189;-83
2023/08/22 00:10:05;;;;;;;19.83;8.15;;;;;;;18.12;100.00;101751.09;5063142;28;20658;-83
2023/08/22 00:12:31;;;;;;;17.73;7.82;;;;;;;18.10;100.00;101747.63;5086102;28;20161;-83
2023/08/22 00:14:56;;;;;;;12.90;7.93;;;;;;;17.87;100.00;101741.50;5083806;28;20119;-83
2023/08/22 00:17:24;;;;;;;12.90;7.47;;;;;;;17.80;100.00;101734.78;5087445;28;20443;-83
2023/08/22 00:19:50;;;;;;;12.27;7.85;;;;;;;17.82;100.00;101728.06;5067524;28;20028;-83
2023/08/22 00:22:16;;;;;;;16.13;7.63;;;;;;;17.96;100.00;101740.63;5081436;28;20031;-83
2023/08/22 00:24:41;;;;;;;13.75;7.72;;;;;;;17.90;100.00;101743.97;5088068;28;20036;-83
2023/08/22 00:27:07;;;;;;;19.08;7.97;;;;;;;17.88;100.00;101747.94;5086700;28;20039;-83
2023/08/22 00:29:32;;;;;;;16.23;8.90;;;;;;;17.97;100.00;101741.47;5087909;28;20486;-83
2023/08/22 00:31:58;;;;;;;22.58;8.35;;;;;;;17.96;100.00;101748.94;5072895;28;20043;-83
2023/08/22 00:34:24;;;;;;;19.70;8.55;;;;;;;17.96;100.00;101737.84;5074705;28;20038;-83
2023/08/22 00:36:50;;;;;;;15.45;8.88;;;;;;;17.97;100.00;101744.25;5087598;28;20036;-83
2023/08/22 00:39:15;;;;;;;12.75;7.53;;;;;;;17.97;100.00;101738.72;5083824;28;20044;-83
2023/08/22 00:41:42;;;;;;;15.73;8.00;;;;;;;17.93;100.00;101743.69;5087286;28;20042;-84
2023/08/22 00:44:08;;;;;;;18.08;8.15;;;;;;;18.03;100.00;101740.91;5090053;28;20077;-83
2023/08/22 00:46:34;;;;;;;12.90;9.10;;;;;;;17.88;100.00;101746.03;5085167;28;20032;-83
2023/08/22 00:49:00;;;;;;;19.05;8.57;;;;;;;17.73;100.00;101742.81;5084328;28;20031;-83
2023/08/22 00:51:25;;;;;;;20.58;8.73;;;;;;;17.65;100.00;101739.88;5086336;28;20021;-83
2023/08/22 00:53:51;;;;;;;15.48;8.02;;;;;;;17.72;100.00;101737.41;5077932;28;20056;-84
2023/08/22 00:56:17;;;;;;;14.95;8.82;;;;;;;17.72;100.00;101727.19;5071512;28;20052;-83
2023/08/22 00:58:43;;;;;;;17.83;9.00;;;;;;;17.76;100.00;101719.47;5069651;28;20073;-82
2023/08/22 01:01:08;;;;;;;19.77;10.10;;;;;;;17.85;100.00;101726.88;5091057;28;20036;-84
2023/08/22 01:03:34;;;;;;;18.23;9.40;;;;;;;17.89;100.00;101730.25;5080711;28;20478;-84
2023/08/22 01:06:35;;;;;;;16.20;9.23;;;;;;;17.77;100.00;101723.97;5087049;28;20032;-83
2023/08/22 01:09:18;;;;;;;21.13;9.98;;;;;;;17.90;100.00;101715.41;5075572;28;20047;-83
2023/08/22 01:11:48;;;;;;;21.98;9.55;;;;;;;17.96;100.00;101707.38;5083409;28;20148;-83
2023/08/22 01:14:17;;;;;;;22.27;9.93;;;;;;;17.92;100.00;101711.47;5084060;28;20055;-83
2023/08/22 01:16:43;;;;;;;18.05;9.70;;;;;;;17.98;100.00;101710.00;5087047;28;20020;-83
2023/08/22 01:19:12;;;;;;;19.42;9.70;;;;;;;18.11;100.00;101705.00;5088475;28;20123;-83
2023/08/22 01:21:52;;;;;;;18.02;9.80;;;;;;;18.00;100.00;101719.03;5069691;28;20052;-83
2023/08/22 01:24:19;;;;;;;22.80;10.05;;;;;;;17.86;100.00;101720.34;5078420;28;20110;-83
2023/08/22 01:26:46;;;;;;;18.55;9.23;;;;;;;17.81;100.00;101718.00;5088832;28;20028;-83
2023/08/22 01:29:25;;;;;;;19.60;10.05;;;;;;;17.80;100.00;101716.25;5102534;28;20039;-83
2023/08/22 01:32:05;;;;;;;19.85;10.55;;;;;;;17.80;100.00;101715.38;5082393;28;20020;-83
2023/08/22 01:34:34;;;;;;;23.75;9.55;;;;;;;17.77;100.00;101722.09;5081305;28;20055;-83
2023/08/22 01:37:01;;;;;;;14.15;9.93;;;;;;;17.77;100.00;101719.34;5080059;28;20036;-83
2023/08/22 01:39:29;;;;;;;19.10;9.95;;;;;;;17.86;100.00;101716.69;5071853;28;20047;-83
2023/08/22 01:41:56;;;;;;;17.00;9.43;;;;;;;17.96;100.00;101712.91;5086980;28;20024;-83
2023/08/22 01:44:22;;;;;;;14.13;8.57;;;;;;;18.05;100.00;101713.03;5088136;28;20399;-83
2023/08/22 01:46:47;;;;;;;15.15;8.73;;;;;;;18.00;100.00;101710.69;5084105;28;20049;-83
2023/08/22 01:49:13;;;;;;;22.17;8.98;;;;;;;17.86;100.00;101705.63;5068765;28;20062;-83
2023/08/22 01:51:39;;;;;;;17.48;8.80;;;;;;;17.78;100.00;101703.59;5087949;28;20054;-84
2023/08/22 01:54:05;;;;;;;14.52;8.82;;;;;;;17.72;100.00;101698.63;5088093;28;20174;-83
2023/08/22 01:56:30;;;;;;;14.93;8.70;;;;;;;17.73;100.00;101698.47;5081768;28;20073;-84
2023/08/22 01:58:55;;;;;;;24.15;9.82;;;;;;;17.56;100.00;101697.34;5071505;28;20032;-83
2023/08/22 02:01:23;;;;;;;20.42;9.40;;;;;;;17.55;100.00;101697.47;5068302;28;20092;-84
2023/08/22 02:03:50;;;;;;;17.70;9.10;;;;;;;17.59;100.00;101693.38;5086128;28;20031;-84
2023/08/22 02:06:16;;;;;;;14.85;9.43;;;;;;;17.60;100.00;101698.78;5075182;28;20126;-83
2023/08/22 02:08:41;;;;;;;15.13;9.43;;;;;;;17.32;100.00;101703.31;5084172;28;20151;-82
2023/08/22 02:11:06;;;;;;;14.23;9.80;;;;;;;17.35;100.00;101704.88;5082900;28;20118;-81
2023/08/22 02:13:32;;;;;;;17.05;10.13;;;;;;;17.33;100.00;101707.84;5082045;28;20085;-81
2023/08/22 02:15:58;;;;;;;17.05;10.63;;;;;;;17.39;100.00;101707.22;5081112;28;20022;-81
2023/08/22 02:18:23;;;;;;;23.15;11.15;;;;;;;17.38;100.00;101701.84;5083723;28;20036;-81
2023/08/22 02:20:54;;;;;;;22.55;11.38;;;;;;;17.39;100.00;101703.59;5085265;28;20024;-81
2023/08/22 02:23:19;;;;;;;23.65;11.40;;;;;;;17.42;100.00;101704.19;5081432;28;20516;-81
2023/08/22 02:25:46;;;;;;;19.58;12.20;;;;;;;17.50;100.00;101706.22;5069032;28;20036;-81
2023/08/22 02:28:12;;;;;;;21.60;11.55;;;;;;;17.62;100.00;101701.41;5087486;28;20040;-81
2023/08/22 02:30:37;;;;;;;20.98;12.40;;;;;;;17.60;100.00;101689.59;5080208;28;20127;-81
2023/08/22 02:33:03;;;;;;;21.35;11.15;;;;;;;17.52;100.00;101700.53;5087487;28;20046;-81
2023/08/22 02:35:30;;;;;;;21.60;10.70;;;;;;;17.29;100.00;101694.41;5053789;28;20033;-81
2023/08/22 02:37:55;;;;;;;13.73;10.05;;;;;;;17.22;100.00;101700.53;5059903;28;20109;-81
2023/08/22 02:40:21;;;;;;;18.98;9.70;;;;;;;17.27;100.00;101692.66;5069719;28;20040;-81
2023/08/22 02:42:47;;;;;;;21.35;10.10;;;;;;;17.16;100.00;101689.16;5085374;28;20036;-81
2023/08/22 02:45:12;;;;;;;23.50;11.52;;;;;;;17.02;100.00;101683.03;5081272;28;20133;-81
2023/08/22 02:47:37;;;;;;;19.63;11.15;;;;;;;17.06;100.00;101683.63;5064028;28;20052;-81
2023/08/22 02:50:04;;;;;;;26.02;11.60;;;;;;;17.20;100.00;101677.66;5069441;28;20495;-81
2023/08/22 02:52:30;;;;;;;23.38;10.52;;;;;;;17.11;100.00;101677.66;5083431;28;20032;-81
2023/08/22 02:54:56;;;;;;;15.75;11.23;;;;;;;17.10;100.00;101679.53;5085748;28;20057;-81
2023/08/22 02:57:21;;;;;;;18.73;11.57;;;;;;;17.02;100.00;101680.25;5050444;28;20033;-81
2023/08/22 02:59:46;;;;;;;23.98;11.55;;;;;;;17.00;100.00;101679.50;5084179;28;20047;-81
2023/08/22 03:02:12;;;;;;;20.02;10.68;;;;;;;17.05;100.00;101681.84;5070167;28;20406;-82
2023/08/22 03:04:37;;;;;;;17.73;11.30;;;;;;;17.05;100.00;101688.28;5082979;28;20074;-82
2023/08/22 03:07:04;;;;;;;22.10;11.57;;;;;;;17.03;100.00;101683.91;5071103;28;20027;-82
2023/08/22 03:09:30;;;;;;;22.27;12.18;;;;;;;16.96;100.00;101688.28;5070413;28;20060;-82
2023/08/22 03:11:55;;;;;;;18.40;11.20;;;;;;;16.96;100.00;101683.59;5086472;28;20136;-82
2023/08/22 03:14:21;;;;;;;19.20;12.30;;;;;;;16.97;100.00;101682.59;5085739;28;20037;-82
2023/08/22 03:16:46;;;;;;;16.83;11.40;;;;;;;17.14;100.00;101686.53;5065266;28;20759;-82
2023/08/22 03:19:11;;;;;;;19.42;12.02;;;;;;;17.05;100.00;101674.44;5066955;28;20040;-82
2023/08/22 03:21:37;;;;;;;19.20;11.55;;;;;;;17.04;100.00;101672.69;5086677;28;20072;-82
2023/08/22 03:24:02;;;;;;;17.52;11.18;;;;;;;17.13;100.00;101679.25;5053042;28;20533;-82
2023/08/22 03:26:28;;;;;;;21.05;10.85;;;;;;;17.18;100.00;101676.03;5082552;28;20032;-82
2023/08/22 03:28:53;;;;;;;17.95;10.63;;;;;;;17.15;100.00;101676.34;5058061;28;20028;-81
2023/08/22 03:31:22;;;;;;;13.95;10.10;;;;;;;17.12;100.00;101676.63;5078000;28;20041;-81
2023/08/22 03:33:47;;;;;;;18.15;10.50;;;;;;;17.11;100.00;101672.97;5085274;28;20044;-81
2023/08/22 03:36:13;;;;;;;19.95;10.25;;;;;;;17.18;100.00;101678.81;5066697;28;20477;-81
2023/08/22 03:38:38;;;;;;;17.20;10.05;;;;;;;17.04;100.00;101677.34;5083041;28;20164;-82
2023/08/22 03:41:05;;;;;;;19.42;10.05;;;;;;;16.87;100.00;101685.34;5084257;28;20422;-81
2023/08/22 03:43:30;;;;;;;15.45;9.85;;;;;;;16.81;100.00;101677.56;5078002;28;20029;-82
2023/08/22 03:45:56;;;;;;;19.30;11.32;;;;;;;16.98;100.00;101676.03;5064522;28;20031;-81
2023/08/22 03:48:21;;;;;;;20.17;10.27;;;;;;;16.98;100.00;101672.41;5048602;28;20031;-81
2023/08/22 03:50:47;;;;;;;16.88;9.55;;;;;;;16.95;100.00;101673.53;5052443;28;20142;-81
2023/08/22 03:53:13;;;;;;;14.68;9.70;;;;;;;17.05;100.00;101671.69;5068738;28;20036;-81
2023/08/22 03:55:39;;;;;;;18.48;11.10;;;;;;;17.02;100.00;101671.97;5082635;28;20024;-82
2023/08/22 03:58:05;;;;;;;18.40;10.30;;;;;;;16.87;100.00;101678.91;5087170;28;20058;-81
2023/08/22 04:00:30;;;;;;;19.70;11.00;;;;;;;16.82;100.00;101671.03;5086179;28;20089;-81
2023/08/22 04:02:57;;;;;;;14.55;10.05;;;;;;;16.90;100.00;101674.00;5089145;28;20520;-81
2023/08/22 04:05:23;;;;;;;27.77;10.68;;;;;;;16.93;100.00;101674.72;5074690;28;20036;-82
2023/08/22 04:07:50;;;;;;;25.15;11.27;;;;;;;16.93;100.00;101675.59;5075634;28;20422;-82
2023/08/22 04:10:17;;;;;;;16.17;10.52;;;;;;;16.76;100.00;101679.88;5085871;28;20035;-81
2023/08/22 04:12:42;;;;;;;18.63;10.80;;;;;;;16.70;100.00;101673.03;5088690;28;20016;-81
2023/08/22 04:15:09;;;;;;;15.10;10.73;;;;;;;16.57;100.00;101661.34;5067108;28;20036;-81
2023/08/22 04:17:35;;;;;;;25.30;10.32;;;;;;;16.61;100.00;101673.88;5085759;28;20020;-81
2023/08/22 04:20:01;;;;;;;14.27;10.10;;;;;;;16.69;100.00;101668.53;5089234;28;20407;-81
2023/08/22 04:22:26;;;;;;;20.75;10.68;;;;;;;16.68;100.00;101675.06;5086132;28;20032;-81
2023/08/22 04:24:52;;;;;;;18.52;11.07;;;;;;;16.68;100.00;101669.53;5083812;28;20028;-81
2023/08/22 04:27:18;;;;;;;15.07;10.07;;;;;;;16.72;100.00;101662.72;5088902;28;20036;-81
2023/08/22 04:29:43;;;;;;;25.38;11.68;;;;;;;16.60;100.00;101669.38;5085804;28;20550;-80
2023/08/22 04:32:08;;;;;;;19.77;11.65;;;;;;;16.71;100.00;101673.91;5089297;28;20028;-81
2023/08/22 04:34:34;;;;;;;15.30;10.68;;;;;;;16.73;100.00;101671.88;5090112;28;20600;-81
2023/08/22 04:36:59;;;;;;;15.25;10.10;;;;;;;16.72;100.00;101670.13;5084538;28;20052;-82
2023/08/22 04:39:25;;;;;;;18.75;11.13;;;;;;;16.70;100.00;101672.16;5085892;28;20056;-82
2023/08/22 04:41:50;;;;;;;19.05;10.77;;;;;;;16.62;100.00;101669.22;5085313;28;20048;-81
2023/08/22 04:44:16;;;;;;;16.35;10.48;;;;;;;16.60;100.00;101674.03;5088074;28;20035;-81
2023/08/22 04:46:41;;;;;;;17.20;10.85;;;;;;;16.65;100.00;101672.56;5087280;28;20048;-82
2023/08/22 04:49:07;;;;;;;14.85;10.57;;;;;;;16.58;100.00;101665.88;5085001;28;20375;-81
2023/08/22 04:51:32;;;;;;;19.13;11.07;;;;;;;16.48;100.00;101670.50;5070444;28;20055;-82
2023/08/22 04:53:58;;;;;;;22.38;12.50;;;;;;;16.48;100.00;101673.25;5085840;28;20559;-82
2023/08/22 04:56:23;;;;;;;20.17;13.07;;;;;;;16.35;100.00;101673.50;5069032;28;20038;-82
2023/08/22 04:58:48;;;;;;;21.20;13.85;;;;;;;16.35;100.00;101674.38;5087633;28;20047;-81
2023/08/22 05:01:14;;;;;;;23.05;14.68;;;;;;;16.34;100.00;101678.13;5084288;28;20025;-81
2023/08/22 05:03:39;;;;;;;24.10;14.63;;;;;;;16.34;100.00;101683.66;5056629;28;20047;-80
2023/08/22 05:06:05;;;;;;;21.60;13.98;;;;;;;16.44;100.00;101689.22;5084145;28;20032;-81
2023/08/22 05:08:30;;;;;;;25.75;13.63;;;;;;;16.49;100.00;101686.91;5080147;28;20052;-82
2023/08/22 05:10:55;;;;;;;17.90;14.13;;;;;;;16.64;100.00;101686.53;5084567;28;20040;-81
2023/08/22 05:13:21;;;;;;;24.75;13.75;;;;;;;16.68;100.00;101685.25;5067282;28;20054;-82
2023/08/22 05:15:46;;;;;;;26.80;15.00;;;;;;;16.57;100.00;101683.47;5071515;28;20028;-82
2023/08/22 05:18:12;;;;;;;23.95;15.38;;;;;;;16.77;100.00;101695.44;5080708;28;20118;-81
2023/08/22 05:20:39;;;;;;;20.20;13.15;;;;;;;16.78;100.00;101690.81;5084529;28;20413;-81
2023/08/22 05:23:05;;;;;;;26.67;14.57;;;;;;;16.81;100.00;101691.41;5082429;28;20020;-81
2023/08/22 05:25:30;;;;;;;24.42;14.20;;;;;;;16.87;100.00;101695.50;5079338;28;20031;-82
2023/08/22 05:27:56;;;;;;;22.38;14.07;;;;;;;16.82;100.00;101695.03;5087402;28;20441;-82
2023/08/22 05:30:21;;;;;;;19.67;13.98;;;;;;;16.83;100.00;101689.34;5087267;28;20083;-81
2023/08/22 05:32:47;;;;;;;30.13;14.63;;;;;;;16.94;100.00;101691.19;5067707;28;20052;-82
2023/08/22 05:35:12;;;;;;;18.58;13.95;;;;;;;17.02;100.00;101691.34;5089958;28;20043;-82
2023/08/22 05:37:37;;;;;;;23.27;14.02;;;;;;;17.16;100.00;101684.50;5081818;28;20040;-82
2023/08/22 05:40:06;;;;;;;27.67;14.57;;;;;;;17.26;100.00;101685.38;5087518;28;20040;-83
2023/08/22 05:42:31;;;;;;;22.70;14.23;;;;;;;17.42;100.00;101693.09;5086916;28;20069;-83
2023/08/22 05:44:56;;;;;;;27.17;13.73;;;;;;;17.62;100.00;101690.31;5086517;28;20040;-83
2023/08/22 05:47:22;;;;;;;25.48;14.55;;;;;;;17.72;100.00;101682.88;5054588;28;20431;-83
2023/08/22 05:49:47;;;;;;;25.60;14.85;;;;;;;17.89;100.00;101684.06;5055591;28;20024;-83
2023/08/22 05:52:13;;;;;;;28.58;16.42;;;;;;;18.00;100.00;101683.88;5071602;28;20036;-83
2023/08/22 05:54:38;;;;;;;27.73;17.23;;;;;;;18.14;100.00;101689.97;5091043;28;20068;-83
2023/08/22 05:57:03;;;;;;;26.85;16.00;;;;;;;18.23;100.00;101682.63;5085432;28;20143;-83
2023/08/22 05:59:29;;;;;;;30.15;14.50;;;;;;;18.41;100.00;101685.50;5064193;28;20459;-83
2023/08/22 06:01:55;;;;;;;25.15;16.17;;;;;;;18.44;100.00;101679.63;5090480;28;20032;-83
2023/08/22 06:04:20;;;;;;;27.73;15.65;;;;;;;18.64;100.00;101689.59;5070488;28;20027;-83
2023/08/22 06:06:46;;;;;;;31.65;16.20;;;;;;;18.83;100.00;101687.75;5068061;28;20039;-82
2023/08/22 06:09:12;;;;;;;25.85;16.60;;;;;;;18.97;100.00;101678.06;5085389;28;20398;-83
2023/08/22 06:11:38;;;;;;;30.25;16.45;;;;;;;19.11;100.00;101688.63;5070777;28;20036;-81
2023/08/22 06:14:04;;;;;;;32.40;16.88;;;;;;;19.28;100.00;101684.09;5073981;28;20390;-82
2023/08/22 06:16:30;;;;;;;25.90;15.55;;;;;;;19.55;100.00;101698.97;5084394;28;20051;-82
2023/08/22 06:18:55;;;;;;;26.50;16.55;;;;;;;19.67;100.00;101699.56;5074165;28;20028;-82
2023/08/22 06:21:20;;;;;;;25.20;15.38;;;;;;;19.81;100.00;101697.13;5080502;28;20557;-82
2023/08/22 06:23:46;;;;;;;28.27;16.70;;;;;;;20.22;100.00;101702.09;5083353;28;20028;-81
2023/08/22 06:26:13;;;;;;;24.98;15.00;;;;;;;20.09;100.00;101696.97;5085704;28;20032;-82
2023/08/22 06:28:38;;;;;;;31.92;14.48;;;;;;;20.33;100.00;101704.63;5086297;28;20024;-83
2023/08/22 06:31:06;;;;;;;26.55;15.10;;;;;;;20.45;100.00;101701.56;5088422;28;20509;-84
2023/08/22 06:33:31;;;;;;;29.83;14.73;;;;;;;20.46;100.00;101708.84;5085838;28;20028;-84
2023/08/22 06:35:57;;;;;;;22.55;12.57;;;;;;;20.82;100.00;101701.19;5085705;28;20026;-85
2023/08/22 06:38:23;;;;;;;30.42;13.82;;;;;;;20.81;100.00;101705.03;5085711;28;20416;-84
2023/08/22 06:40:48;;;;;;;19.02;12.25;;;;;;;20.78;100.00;101705.38;5080976;28;20059;-82
2023/08/22 06:43:15;;;;;;;23.30;11.13;;;;;;;21.12;100.00;101701.66;5066680;28;20394;-82
2023/08/22 06:45:41;;;;;;;23.88;11.95;;;;;;;21.29;100.00;101709.00;5086267;28;20035;-82
2023/08/22 06:48:07;;;;;;;28.85;12.07;;;;;;;21.53;100.00;101701.75;5081834;28;20039;-82
2023/08/22 06:50:32;;;;;;;21.63;11.30;;;;;;;21.47;100.00;101703.31;5072028;28;20478;-82
2023/08/22 06:52:58;;;;;;;22.63;12.10;;;;;;;21.48;100.00;101701.41;5082732;28;20063;-83
2023/08/22 06:55:23;;;;;;;21.33;11.30;;;;;;;21.69;100.00;101700.00;5081196;28;20052;-83
2023/08/22 06:57:49;;;;;;;22.35;11.35;;;;;;;22.00;100.00;101702.97;5064702;28;20059;-81
2023/08/22 07:00:16;;;;;;;19.65;9.20;;;;;;;22.38;100.00;101711.63;5090759;28;20057;-83
2023/08/22 07:02:42;;;;;;;17.85;9.48;;;;;;;23.04;100.00;101716.97;5088238;28;20051;-82
2023/08/22 07:05:09;;;;;;;18.85;9.75;;;;;;;23.06;100.00;101723.25;5079316;28;20399;-82
2023/08/22 07:07:36;;;;;;;13.75;8.50;;;;;;;23.34;100.00;101723.63;5088623;28;20034;-83
2023/08/22 07:10:03;;;;;;;15.60;8.82;;;;;;;22.57;100.00;101718.72;5081988;28;20431;-84
2023/08/22 07:12:29;;;;;;;13.20;8.27;;;;;;;22.56;100.00;101730.94;5086553;28;20073;-81
2023/08/22 07:14:54;;;;;;;21.20;7.65;;;;;;;22.07;100.00;101733.81;5076429;28;20024;-83
2023/08/22 07:17:19;;;;;;;17.83;8.52;;;;;;;21.77;100.00;101730.69;5061269;28;20490;-82
2023/08/22 07:19:45;;;;;;;15.23;7.03;;;;;;;22.35;100.00;101731.50;5068011;28;20070;-83
2023/08/22 07:22:10;;;;;;;18.38;7.95;;;;;;;23.37;100.00;101736.38;5084835;28;20490;-82
2023/08/22 07:24:35;;;;;;;14.10;7.88;;;;;;;23.63;100.00;101730.44;5082864;28;20032;-83
2023/08/22 07:27:01;;;;;;;17.40;8.57;;;;;;;23.57;100.00;101734.81;5070103;28;20406;-82
2023/08/22 07:29:26;;;;;;;15.30;7.97;;;;;;;23.90;100.00;101731.78;5067820;28;20032;-82
2023/08/22 07:31:57;;;;;;;22.48;9.05;;;;;;;23.92;100.00;101738.06;5088519;28;20058;-82
2023/08/22 07:34:24;;;;;;;23.23;8.45;;;;;;;23.60;100.00;101728.84;5088334;28;20493;-82
2023/08/22 07:36:51;;;;;;;16.27;7.45;;;;;;;23.08;100.00;101744.38;5085764;28;20371;-83
2023/08/22 07:39:16;;;;;;;15.85;7.03;;;;;;;22.61;100.00;101736.00;5085435;28;20080;-83
2023/08/22 07:41:41;;;;;;;20.13;7.53;;;;;;;22.68;100.00;101731.44;5089119;28;20082;-82
2023/08/22 07:44:07;;;;;;;18.38;6.40;;;;;;;23.04;100.00;101742.13;5081326;28;20173;-83
2023/08/22 07:46:32;;;;;;;16.13;6.93;;;;;;;22.85;100.00;101746.22;5065123;28;20043;-82
2023/08/22 07:48:58;;;;;;;18.48;7.40;;;;;;;22.34;100.00;101747.41;5089413;28;20028;-82
2023/08/22 07:51:23;;;;;;;17.20;6.65;;;;;;;22.64;100.00;101741.22;5087454;28;20071;-81
2023/08/22 07:53:49;;;;;;;12.43;6.88;;;;;;;22.84;100.00;101736.06;5088583;28;20474;-81
2023/08/22 07:56:14;;;;;;;14.02;6.80;;;;;;;23.17;100.00;101745.22;5086968;28;20036;-83
2023/08/22 07:58:40;;;;;;;16.20;6.45;;;;;;;23.50;100.00;101736.63;5101642;28;20119;-82
2023/08/22 08:01:05;;;;;;;11.02;5.75;;;;;;;23.72;100.00;101748.00;5089226;28;20091;-84
2023/08/22 08:03:31;;;;;;;10.82;5.70;;;;;;;23.83;100.00;101751.25;5085789;28;20612;-83
2023/08/22 08:05:58;;;;;;;17.02;6.93;;;;;;;23.91;100.00;101753.13;5091141;28;20197;-83
2023/08/22 08:08:23;;;;;;;11.68;5.30;;;;;;;23.94;100.00;101749.06;5090161;28;20026;-83
2023/08/22 08:10:49;;;;;;;14.07;4.20;;;;;;;23.94;100.00;101755.56;5067463;28;20024;-83
2023/08/22 08:13:14;;;;;;;13.68;4.30;;;;;;;24.07;100.00;101751.22;5086113;28;20032;-82
2023/08/22 08:15:41;;;;;;;14.75;6.38;;;;;;;23.54;100.00;101751.97;5086897;28;20009;-82
2023/08/22 08:18:06;;;;;;;17.50;5.80;;;;;;;23.06;100.00;101748.38;5083558;28;20126;-83
2023/08/22 08:20:33;;;;;;;17.75;5.78;;;;;;;23.06;100.00;101742.81;5089268;28;20107;-83
2023/08/22 08:22:58;;;;;;;20.20;6.10;;;;;;;22.92;100.00;101750.91;5052436;28;20398;-82
2023/08/22 08:25:24;;;;;;;16.85;6.75;;;;;;;22.70;100.00;101748.88;5058052;28;20035;-82
2023/08/22 08:27:49;;;;;;;13.60;6.05;;;;;;;23.31;100.00;101763.97;5083704;28;20071;-82
2023/08/22 08:30:15;;;;;;;17.05;5.97;;;;;;;23.88;100.00;101753.50;5071308;28;20028;-82
2023/08/22 08:32:40;;;;;;;15.98;6.50;;;;;;;23.56;100.00;101755.44;5085000;28;20020;-83
2023/08/22 08:35:07;;;;;;;11.27;5.63;;;;;;;23.20;100.00;101758.84;5088163;28;20032;-82
2023/08/22 08:37:32;;;;;;;13.60;5.63;;;;;;;23.65;100.00;101759.94;5055419;28;20024;-83
2023/08/22 08:39:58;;;;;;;13.15;5.85;;;;;;;23.60;100.00;101762.41;5087532;28;20054;-83
2023/08/22 08:42:24;;;;;;;12.63;6.43;;;;;;;23.72;100.00;101768.44;5051526;28;20565;-82
2023/08/22 08:44:50;;;;;;;18.85;6.28;;;;;;;23.74;100.00;101762.66;5086815;28;20070;-83
2023/08/22 08:47:16;;;;;;;12.75;6.15;;;;;;;23.89;100.00;101759.94;5091448;28;20124;-83
2023/08/22 08:49:41;;;;;;;18.67;5.97;;;;;;;23.96;100.00;101767.41;5083262;28;20506;-83
2023/08/22 08:52:08;;;;;;;15.73;5.88;;;;;;;23.44;100.00;101757.78;5087157;28;20082;-82
2023/08/22 08:54:35;;;;;;;14.95;5.80;;;;;;;24.07;100.00;101765.22;5080597;28;20085;-83
2023/08/22 08:57:00;;;;;;;16.83;6.55;;;;;;;23.45;100.00;101762.34;5091566;28;20032;-84
2023/08/22 08:59:29;;;;;;;12.88;6.47;;;;;;;23.40;100.00;101770.41;5081766;28;20132;-82
2023/08/22 09:01:56;;;;;;;17.42;6.95;;;;;;;23.49;100.00;101768.44;5089507;28;20052;-83
2023/08/22 09:04:22;;;;;;;15.32;6.57;;;;;;;23.30;100.00;101765.06;5086791;28;20020;-83
2023/08/22 09:06:48;;;;;;;10.90;6.47;;;;;;;23.59;100.00;101768.19;5083262;28;20103;-82
2023/08/22 09:09:14;;;;;;;20.23;6.47;;;;;;;24.04;100.00;101758.94;5089311;28;20505;-82
2023/08/22 09:11:45;;;;;;;18.17;6.25;;;;;;;24.03;100.00;101751.59;5085542;28;20058;-83
2023/08/22 09:14:11;;;;;;;15.40;6.25;;;;;;;24.60;100.00;101749.31;5083711;28;20039;-82
2023/08/22 09:16:36;;;;;;;20.25;7.68;;;;;;;24.92;100.00;101755.59;5081985;28;20016;-85
2023/08/22 09:19:02;;;;;;;14.20;6.68;;;;;;;24.81;100.00;101761.66;5090727;28;20051;-82
2023/08/22 09:21:29;;;;;;;12.05;7.30;;;;;;;24.87;100.00;101755.31;5089543;28;20069;-83
2023/08/22 09:24:10;;;;;;;16.70;7.20;;;;;;;24.12;100.00;101757.13;5090545;28;20482;-82
2023/08/22 09:26:37;;;;;;;18.08;7.03;;;;;;;24.17;100.00;101749.03;5102977;28;20487;-82
2023/08/22 09:29:06;;;;;;;14.80;6.32;;;;;;;24.15;100.00;101752.03;5085047;28;20543;-82
2023/08/22 09:31:35;;;;;;;16.50;7.05;;;;;;;24.03;100.00;101750.75;5088270;28;20398;-82
2023/08/22 09:34:07;;;;;;;14.00;6.95;;;;;;;23.65;100.00;101759.06;5089817;28;20024;-82
2023/08/22 09:36:33;;;;;;;17.55;6.90;;;;;;;23.46;100.00;101752.03;5086130;28;20374;-83
2023/08/22 09:38:58;;;;;;;12.30;6.10;;;;;;;23.62;100.00;101754.69;5084517;28;20132;-83
2023/08/22 09:41:25;;;;;;;14.63;5.90;;;;;;;23.89;100.00;101752.44;5089929;28;20036;-83
2023/08/22 09:43:58;;;;;;;12.45;5.30;;;;;;;23.89;100.00;101754.34;5090034;28;20118;-83
2023/08/22 09:46:24;;;;;;;16.88;5.53;;;;;;;23.92;100.00;101749.25;5081903;28;20402;-83
2023/08/22 09:48:51;;;;;;;13.13;5.18;;;;;;;24.22;100.00;101752.16;5071291;28;20020;-82
2023/08/22 09:51:21;;;;;;;16.73;5.25;;;;;;;24.07;100.00;101759.63;5086565;28;20032;-81
2023/08/22 09:53:52;;;;;;;19.38;6.32;;;;;;;23.65;100.00;101739.50;5087744;28;20044;-82
2023/08/22 09:56:19;;;;;;;16.23;4.90;;;;;;;24.01;100.00;101747.28;5085946;28;20502;-82
2023/08/22 09:58:46;;;;;;;17.95;5.60;;;;;;;24.01;100.00;101752.88;5084621;28;20114;-82
2023/08/22 10:01:16;;;;;;;12.18;5.88;;;;;;;23.98;100.00;101754.09;5088804;28;20470;-82
2023/08/22 10:03:46;;;;;;;12.55;5.90;;;;;;;24.42;100.00;101762.81;5090401;28;20390;-82
2023/08/22 10:06:13;;;;;;;18.65;6.07;;;;;;;24.72;100.00;101761.78;5083354;28;20107;-82
2023/08/22 10:08:40;;;;;;;21.60;5.72;;;;;;;24.86;100.00;101765.66;5085918;28;20035;-82
2023/08/22 10:11:08;;;;;;;13.77;6.05;;;;;;;24.52;100.00;101769.00;5089500;28;20043;-82
2023/08/22 10:13:37;;;;;;;14.93;5.78;;;;;;;24.96;100.00;101770.97;5080172;28;20029;-82
2023/08/22 10:16:02;;;;;;;14.57;5.50;;;;;;;24.83;100.00;101781.97;5085159;28;20024;-82
2023/08/22 10:18:28;;;;;;;10.30;4.47;;;;;;;24.97;100.00;101769.88;5069563;28;20043;-82
2023/08/22 10:20:54;;;;;;;17.02;5.63;;;;;;;25.45;100.00;101775.06;5089412;28;20066;-83
2023/08/22 10:23:55;;;;;;;13.70;4.90;;;;;;;25.13;100.00;101763.19;5081923;28;20036;-81
2023/08/22 10:26:28;;;;;;;11.57;5.72;;;;;;;24.39;100.00;101764.91;5083483;28;20032;-82
2023/08/22 10:29:13;;;;;;;11.88;5.57;;;;;;;24.80;100.00;101758.00;5079227;28;20174;-82
2023/08/22 10:32:01;;;;;;;10.15;5.43;;;;;;;24.30;100.00;101763.25;5087491;28;20024;-81
2023/08/22 10:34:47;;;;;;;10.07;4.35;;;;;;;24.63;100.00;101754.53;5085812;28;20078;-81
2023/08/22 10:37:18;;;;;;;9.48;4.88;;;;;;;24.87;100.00;101758.09;5040573;28;20049;-82
2023/08/22 10:39:46;;;;;;;13.65;5.70;;;;;;;24.76;100.00;101760.34;5080443;28;20127;-82
2023/08/22 10:42:19;;;;;;;13.93;5.20;;;;;;;24.61;100.00;101756.66;5084651;28;20036;-82
2023/08/22 10:44:56;;;;;;;19.95;5.85;;;;;;;24.53;100.00;101754.78;5080864;28;20037;-82
2023/08/22 10:47:26;;;;;;;12.48;5.15;;;;;;;24.44;100.00;101764.34;5086046;28;20036;-82
2023/08/22 10:49:55;;;;;;;9.60;4.80;;;;;;;24.72;100.00;101758.09;5078256;28;20028;-82
2023/08/22 10:52:26;;;;;;;14.55;5.30;;;;;;;24.79;100.00;101753.47;5081418;28;20037;-81
2023/08/22 10:55:08;;;;;;;19.55;5.55;;;;;;;24.47;100.00;101749.97;5086269;28;21509;-82
2023/08/22 10:57:36;;;;;;;17.25;6.55;;;;;;;24.42;100.00;101754.41;5083768;28;20028;-82
2023/08/22 11:00:23;;;;;;;12.80;6.13;;;;;;;24.58;100.00;101757.06;5086359;28;20879;-82
2023/08/22 11:02:59;;;;;;;15.93;5.80;;;;;;;24.72;100.00;101746.91;5085158;28;20028;-82
2023/08/22 11:05:26;;;;;;;18.65;5.80;;;;;;;25.18;100.00;101755.06;5086516;28;20024;-83